Umeoh Maru — JD3736 — position and weather

sailwx.info

Track history (hours):
 
Tides and Currents Weather Stations Pressure Air Temp Water Temp Dewpoint Dewpoint Depression Visibility Wind Speed Wind Dir Waves Ship Positions

Umeoh Maru

Last reported at 2018-Apr-21 18:30 UTC. Time now 2018-Apr-21 18:40 UTC.
Position N 35°36' E 139°60'.

Length 73 m; draft 4.6 m.

Type: Tanker. MMSI: 431005826.

Date/timePositionNaut miles runAvg speedWind from/ knotsBaromVisibWave heightAir tempDewpointWater temp
2018-Apr-21 18:30N 35°36' E 139°60'0 0.0
2018-Apr-21 18:00N 35°36' E 139°60'0 0.0
2018-Apr-21 17:30N 35°36' E 139°60'0 0.0
2018-Apr-21 17:00N 35°36' E 139°60'0 0.0
2018-Apr-21 16:30N 35°36' E 139°60'0 0.0
2018-Apr-21 16:00N 35°36' E 139°60'0 0.0
2018-Apr-21 15:30N 35°36' E 139°60'0 0.0
2018-Apr-21 15:00N 35°36' E 139°60'0 0.0
2018-Apr-21 14:30N 35°36' E 139°60'0 0.0
2018-Apr-21 14:00N 35°36' E 139°60'0 0.0
2018-Apr-21 13:30N 35°36' E 139°60'0 0.0
2018-Apr-21 13:01N 35°36' E 139°60'2 3.2
2018-Apr-21 12:30N 35°35' E 139°58'712.8
2018-Apr-21 11:59N 35°32' E 139°51'4 9.2
2018-Apr-21 11:30N 35°32' E 139°46'0 0.1
2018-Apr-21 11:00N 35°32' E 139°46'0 0.0
2018-Apr-21 10:30N 35°32' E 139°46'0 0.0
2018-Apr-21 10:00N 35°32' E 139°46'0 0.0
2018-Apr-21 09:30N 35°32' E 139°46'0 0.0
2018-Apr-21 09:00N 35°32' E 139°46'0 0.0
2018-Apr-21 08:30N 35°32' E 139°46'0 0.0
2018-Apr-21 08:00N 35°32' E 139°46'0 0.0
2018-Apr-21 07:30N 35°32' E 139°46'0 0.0
2018-Apr-21 07:00N 35°32' E 139°46'0 0.0
2018-Apr-21 06:30N 35°32' E 139°46'0 0.1
2018-Apr-21 06:00N 35°32' E 139°46'4 7.1
2018-Apr-21 05:30N 35°31' E 139°50'1 1.5
2018-Apr-21 05:00N 35°31' E 139°51'0 0.0
2018-Apr-21 04:30N 35°31' E 139°51'3 5.2
2018-Apr-21 03:59N 35°32' E 139°54'511.3
2018-Apr-21 03:30N 35°34' E 140°00'4 8.8
2018-Apr-21 03:00N 35°36' E 140°05'0 0.1
2018-Apr-21 02:30N 35°36' E 140°05'0 0.0
2018-Apr-21 02:00N 35°36' E 140°05'0 0.0
2018-Apr-21 01:30N 35°36' E 140°05'0 0.1
2018-Apr-21 01:00N 35°36' E 140°05'0 0.0
2018-Apr-21 00:31N 35°36' E 140°05'0 0.0
2018-Apr-21 00:00N 35°36' E 140°05'0 0.0
2018-Apr-20 23:30N 35°36' E 140°05'0 0.5
2018-Apr-20 23:00N 35°36' E 140°05'1 2.1
2018-Apr-20 22:30N 35°35' E 140°04'0 0.1
2018-Apr-20 22:00N 35°35' E 140°04'0 0.0
2018-Apr-20 21:31N 35°35' E 140°04'0 0.0
2018-Apr-20 21:00N 35°35' E 140°04'0 0.0
2018-Apr-20 20:30N 35°35' E 140°04'0 0.0
2018-Apr-20 20:00N 35°35' E 140°04'0 0.0
2018-Apr-20 19:30N 35°35' E 140°04'0 0.0
2018-Apr-20 19:00N 35°35' E 140°04'611.5
2018-Apr-20 18:30N 35°32' E 139°58'612.9
2018-Apr-20 18:00N 35°28' E 139°52'612.6
2018-Apr-20 17:30N 35°24' E 139°46'612.2
2018-Apr-20 17:00N 35°18' E 139°45'611.9
2018-Apr-20 16:31N 35°12' E 139°47'612.2
2018-Apr-20 16:00N 35°07' E 139°44'612.7
2018-Apr-20 15:30N 35°02' E 139°38'612.8
2018-Apr-20 15:01N 34°58' E 139°33'713.2
2018-Apr-20 14:27N 34°53' E 139°25'613.4
2018-Apr-20 14:00N 34°50' E 139°19'713.8
2018-Apr-20 13:30N 34°46' E 139°12'713.9
2018-Apr-20 13:00N 34°42' E 139°06'713.3
2018-Apr-20 12:29N 34°37' E 138°60'611.5
2018-Apr-20 12:00N 34°35' E 138°53'713.2
2018-Apr-20 11:30N 34°35' E 138°45'713.5
2018-Apr-20 11:00N 34°35' E 138°37'713.2
2018-Apr-20 10:30N 34°35' E 138°29'713.3
2018-Apr-20 10:00N 34°35' E 138°21'612.6
2018-Apr-20 09:30N 34°34' E 138°13'612.6
2018-Apr-20 09:00N 34°35' E 138°06'613.0
2018-Apr-20 08:30N 34°36' E 137°58'712.7
2018-Apr-20 07:58N 34°36' E 137°50'2612.8
2018-Apr-20 05:54N 34°35' E 137°18'513.0
2018-Apr-20 05:30N 34°34' E 137°12'713.3
2018-Apr-20 05:01N 34°33' E 137°04'912.8
2018-Apr-20 04:17N 34°38' E 136°54'413.4
2018-Apr-20 04:00N 34°40' E 136°51'713.1
2018-Apr-20 03:30N 34°46' E 136°47'612.8
2018-Apr-20 03:00N 34°52' E 136°46'612.7
2018-Apr-20 02:30N 34°58' E 136°48'2 4.4
2018-Apr-20 02:00N 34°59' E 136°50'0 0.0
2018-Apr-20 01:30N 34°59' E 136°50'0 0.0
2018-Apr-20 01:00N 34°59' E 136°50'0 0.0
2018-Apr-20 00:30N 34°59' E 136°50'0 0.0
2018-Apr-20 00:00N 34°59' E 136°50'0 0.0
2018-Apr-19 23:30N 34°59' E 136°50'1 1.4
2018-Apr-19 23:01N 34°59' E 136°49'0 0.1
2018-Apr-19 22:30N 34°59' E 136°49'0 0.0
2018-Apr-19 22:00N 34°59' E 136°49'0 0.0
2018-Apr-19 21:30N 34°59' E 136°49'2 3.5
2018-Apr-19 21:00N 34°58' E 136°48'611.7
2018-Apr-19 20:30N 34°52' E 136°47'612.1
2018-Apr-19 20:00N 34°46' E 136°49'612.3
2018-Apr-19 19:30N 34°41' E 136°53'612.3
2018-Apr-19 19:00N 34°36' E 136°58'711.1
2018-Apr-19 18:25N 34°34' E 137°05'5412.4
2018-Apr-19 14:05N 34°35' E 138°10'111.6
2018-Apr-19 13:59N 34°35' E 138°11'611.3
2018-Apr-19 13:27N 34°34' E 138°19'611.8
2018-Apr-19 12:58N 34°35' E 138°25'711.7
2018-Apr-19 12:24N 34°35' E 138°34'511.6
2018-Apr-19 12:00N 34°35' E 138°39'611.7
2018-Apr-19 11:30N 34°35' E 138°46'612.5
2018-Apr-19 11:00N 34°36' E 138°54'812.5
2018-Apr-19 10:24N 34°40' E 139°01'812.7
2018-Apr-19 09:47N 34°47' E 139°06'310.5
2018-Apr-19 09:30N 34°49' E 139°08'611.4
2018-Apr-19 09:00N 34°54' E 139°12'611.6
2018-Apr-19 08:28N 34°57' E 139°19'511.3
2018-Apr-19 08:00N 34°60' E 139°25'511.0
2018-Apr-19 07:30N 35°02' E 139°30'611.6
2018-Apr-19 07:00N 35°05' E 139°37'612.2
2018-Apr-19 06:30N 35°09' E 139°43'611.7
2018-Apr-19 06:00N 35°14' E 139°46'611.2
2018-Apr-19 05:31N 35°19' E 139°43'510.6
2018-Apr-19 05:00N 35°24' E 139°43'611.5
2018-Apr-19 04:30N 35°28' E 139°48'611.8
2018-Apr-19 04:00N 35°31' E 139°54'612.0
2018-Apr-19 03:30N 35°34' E 140°01'4 7.9
2018-Apr-19 03:00N 35°36' E 140°05'0 0.0
2018-Apr-19 02:30N 35°36' E 140°05'0 0.1
2018-Apr-19 02:00N 35°36' E 140°05'0 0.1
2018-Apr-19 01:30N 35°36' E 140°05'0 0.1
2018-Apr-19 01:00N 35°36' E 140°05'0 0.0
2018-Apr-19 00:30N 35°36' E 140°05'0 0.0
2018-Apr-19 00:00N 35°36' E 140°05'0 0.0
2018-Apr-18 23:30N 35°36' E 140°05'0 0.7
2018-Apr-18 23:00N 35°36' E 140°05'2 3.6
2018-Apr-18 22:30N 35°36' E 140°03'611.1
2018-Apr-18 21:59N 35°33' E 139°57'611.8
2018-Apr-18 21:31N 35°31' E 139°50'0 0.1
2018-Apr-18 21:00N 35°31' E 139°50'0 0.1
2018-Apr-18 20:31N 35°31' E 139°50'0 0.0
2018-Apr-18 20:01N 35°31' E 139°50'0 0.0
2018-Apr-18 19:30N 35°31' E 139°50'0 0.0
2018-Apr-18 19:00N 35°31' E 139°50'0 0.1
2018-Apr-18 18:30N 35°31' E 139°50'0 0.1
2018-Apr-18 18:00N 35°31' E 139°50'0 0.0
2018-Apr-18 17:30N 35°31' E 139°50'0 0.0
2018-Apr-18 17:00N 35°31' E 139°50'0 0.0
2018-Apr-18 16:30N 35°31' E 139°50'0 0.0
2018-Apr-18 15:59N 35°31' E 139°50'0 0.0
2018-Apr-18 15:29N 35°31' E 139°50'0 0.0
2018-Apr-18 14:59N 35°31' E 139°50'0 0.0
2018-Apr-18 14:30N 35°31' E 139°50'0 0.0
2018-Apr-18 14:00N 35°31' E 139°50'3 6.0
2018-Apr-18 13:30N 35°30' E 139°47'1 2.6
2018-Apr-18 13:01N 35°32' E 139°46'0 0.0
2018-Apr-18 12:31N 35°32' E 139°46'0 0.0
2018-Apr-18 12:00N 35°32' E 139°46'0 0.0
2018-Apr-18 11:30N 35°32' E 139°46'0 0.0
2018-Apr-18 11:00N 35°32' E 139°46'0 0.0
2018-Apr-18 10:31N 35°32' E 139°46'0 0.0
2018-Apr-18 10:01N 35°32' E 139°46'0 0.0
2018-Apr-18 09:31N 35°32' E 139°46'0 0.0
2018-Apr-18 09:01N 35°32' E 139°46'0 0.0
2018-Apr-18 08:30N 35°32' E 139°46'0 0.1
2018-Apr-18 08:00N 35°32' E 139°46'3 5.8
2018-Apr-18 07:30N 35°31' E 139°49'611.8
2018-Apr-18 07:00N 35°33' E 139°56'611.9
2018-Apr-18 06:30N 35°35' E 140°02'2 3.7
2018-Apr-18 05:56N 35°36' E 140°05'0 0.0
2018-Apr-18 05:26N 35°36' E 140°05'0 0.0
2018-Apr-18 04:56N 35°36' E 140°05'0 0.0
2018-Apr-18 04:26N 35°36' E 140°05'0 0.0
2018-Apr-18 03:56N 35°36' E 140°05'0 0.0
2018-Apr-18 03:26N 35°36' E 140°05'0 0.0
2018-Apr-18 02:56N 35°36' E 140°05'0 0.0
2018-Apr-18 02:29N 35°36' E 140°05'1 1.0
2018-Apr-18 01:55N 35°36' E 140°04'0 0.1
2018-Apr-18 01:25N 35°36' E 140°04'0 0.0
2018-Apr-18 00:55N 35°36' E 140°04'0 0.0
2018-Apr-18 00:25N 35°36' E 140°04'0 0.0
2018-Apr-17 23:55N 35°36' E 140°04'0 0.0
2018-Apr-17 23:28N 35°36' E 140°04'4 7.7
2018-Apr-17 23:00N 35°34' E 140°00'611.9
2018-Apr-17 22:30N 35°31' E 139°54'611.7
2018-Apr-17 22:00N 35°27' E 139°49'611.4
2018-Apr-17 21:30N 35°22' E 139°45'510.3
2018-Apr-17 21:00N 35°17' E 139°46'611.4
2018-Apr-17 20:30N 35°11' E 139°47'611.5
2018-Apr-17 20:00N 35°06' E 139°43'611.7
2018-Apr-17 19:30N 35°02' E 139°37'612.5
2018-Apr-17 19:00N 34°58' E 139°32'712.7
2018-Apr-17 18:29N 34°54' E 139°25'612.1
2018-Apr-17 18:00N 34°50' E 139°20'612.8
2018-Apr-17 17:30N 34°46' E 139°14'612.5
2018-Apr-17 16:59N 34°42' E 139°08'510.8
2018-Apr-17 16:30N 34°39' E 139°03'610.6
2018-Apr-17 15:59N 34°36' E 138°57'610.9
2018-Apr-17 15:24N 34°35' E 138°50'510.9
2018-Apr-17 14:59N 34°36' E 138°44'611.6
2018-Apr-17 14:30N 34°36' E 138°37'611.8
2018-Apr-17 13:59N 34°36' E 138°30'611.6
2018-Apr-17 13:30N 34°35' E 138°23'610.9
2018-Apr-17 12:57N 34°34' E 138°16'510.7
2018-Apr-17 12:28N 34°35' E 138°10'710.7
2018-Apr-17 11:49N 34°35' E 138°01'4 9.8
2018-Apr-17 11:27N 34°35' E 137°57'3110.3
2018-Apr-17 08:27N 34°36' E 137°19'510.2
2018-Apr-17 07:59N 34°35' E 137°14'5 9.8
2018-Apr-17 07:27N 34°34' E 137°08'11 9.0
2018-Apr-17 06:11N 34°37' E 136°54'211.9
2018-Apr-17 06:00N 34°39' E 136°52'612.4
2018-Apr-17 05:30N 34°44' E 136°48'612.8
2018-Apr-17 05:00N 34°49' E 136°45'612.7
2018-Apr-17 04:30N 34°55' E 136°41'3 6.4
2018-Apr-17 04:00N 34°58' E 136°39'0 0.0
2018-Apr-17 03:30N 34°58' E 136°39'0 0.0
2018-Apr-17 02:59N 34°58' E 136°39'0 0.0
2018-Apr-17 02:30N 34°58' E 136°39'0 0.0
2018-Apr-17 02:00N 34°58' E 136°39'0 0.0
2018-Apr-17 01:30N 34°58' E 136°39'0 0.7
2018-Apr-17 00:59N 34°57' E 136°39'4 7.5
2018-Apr-17 00:30N 34°54' E 136°41'1 1.3
2018-Apr-17 00:00N 34°54' E 136°42'0 0.0
2018-Apr-16 23:30N 34°54' E 136°42'0 0.0
2018-Apr-16 23:00N 34°54' E 136°42'0 0.0
2018-Apr-16 22:30N 34°54' E 136°42'0 0.0
2018-Apr-16 22:00N 34°54' E 136°42'1 1.6
2018-Apr-16 21:30N 34°53' E 136°42'611.8
2018-Apr-16 21:00N 34°48' E 136°47'611.9
2018-Apr-16 20:30N 34°43' E 136°51'912.6
2018-Apr-16 19:50N 34°37' E 136°57'513.0
2018-Apr-16 19:26N 34°33' E 137°02'612.7
2018-Apr-16 18:56N 34°34' E 137°09'5412.1
2018-Apr-16 14:29N 34°34' E 138°15'612.1
2018-Apr-16 13:59N 34°34' E 138°22'812.4
2018-Apr-16 13:22N 34°35' E 138°32'612.2
2018-Apr-16 12:53N 34°35' E 138°39'512.4
2018-Apr-16 12:29N 34°35' E 138°45'711.9
2018-Apr-16 11:55N 34°36' E 138°53'510.7
2018-Apr-16 11:26N 34°38' E 138°59'511.6
2018-Apr-16 11:00N 34°42' E 139°03'612.3
2018-Apr-16 10:30N 34°47' E 139°06'712.3
2018-Apr-16 09:56N 34°53' E 139°11'612.1
2018-Apr-16 09:26N 34°56' E 139°17'511.4
2018-Apr-16 09:00N 34°58' E 139°23'611.1
2018-Apr-16 08:30N 35°01' E 139°28'510.8
2018-Apr-16 08:00N 35°04' E 139°34'612.2
2018-Apr-16 07:30N 35°07' E 139°41'612.1
2018-Apr-16 07:00N 35°12' E 139°45'510.5
2018-Apr-16 06:30N 35°17' E 139°45'511.1
2018-Apr-16 06:00N 35°22' E 139°42'510.9
2018-Apr-16 05:30N 35°26' E 139°46'611.0
2018-Apr-16 05:00N 35°30' E 139°51'0 0.1
2018-Apr-16 04:30N 35°30' E 139°51'5 8.9
2018-Apr-16 03:58N 35°33' E 139°56'612.1
2018-Apr-16 03:30N 35°35' E 140°02'2 4.5
2018-Apr-16 02:58N 35°36' E 140°05'0 0.0
2018-Apr-16 02:28N 35°36' E 140°05'0 0.0
2018-Apr-16 01:58N 35°36' E 140°05'0 0.0
2018-Apr-16 01:28N 35°36' E 140°05'0 0.0
2018-Apr-16 00:58N 35°36' E 140°05'0 0.0
2018-Apr-16 00:28N 35°36' E 140°05'0 0.0
2018-Apr-15 23:58N 35°36' E 140°05'0 0.0
2018-Apr-15 23:28N 35°36' E 140°05'0 0.7
2018-Apr-15 23:00N 35°36' E 140°04'2 3.3
2018-Apr-15 22:30N 35°36' E 140°06'0 0.0
2018-Apr-15 22:00N 35°36' E 140°06'0 0.0
2018-Apr-15 21:30N 35°36' E 140°06'0 0.0
2018-Apr-15 21:00N 35°36' E 140°06'0 0.0
2018-Apr-15 20:30N 35°36' E 140°06'0 0.0
2018-Apr-15 20:00N 35°36' E 140°06'0 0.0
2018-Apr-15 19:30N 35°36' E 140°06'0 0.0
2018-Apr-15 19:00N 35°36' E 140°06'0 0.0
2018-Apr-15 18:30N 35°36' E 140°06'0 0.0
2018-Apr-15 18:00N 35°36' E 140°06'0 0.0
2018-Apr-15 17:30N 35°36' E 140°06'0 0.0
2018-Apr-15 17:00N 35°36' E 140°06'0 0.0
2018-Apr-15 16:30N 35°36' E 140°06'0 0.0
2018-Apr-15 16:00N 35°36' E 140°06'0 0.0
2018-Apr-15 15:30N 35°36' E 140°06'0 0.0
2018-Apr-15 15:00N 35°36' E 140°06'0 0.0
2018-Apr-15 14:30N 35°36' E 140°06'0 0.0
2018-Apr-15 14:00N 35°36' E 140°06'0 0.0
2018-Apr-15 13:30N 35°36' E 140°06'0 0.0
2018-Apr-15 13:00N 35°36' E 140°06'0 0.0
2018-Apr-15 12:30N 35°36' E 140°06'0 0.0
2018-Apr-15 12:00N 35°36' E 140°06'0 0.0
2018-Apr-15 11:30N 35°36' E 140°06'0 0.0
2018-Apr-15 11:00N 35°36' E 140°06'0 0.0
2018-Apr-15 10:30N 35°36' E 140°06'0 0.0
2018-Apr-15 10:00N 35°36' E 140°06'0 0.0
2018-Apr-15 09:30N 35°36' E 140°06'0 0.0
2018-Apr-15 09:00N 35°36' E 140°06'0 0.0
2018-Apr-15 08:30N 35°36' E 140°06'0 0.0
2018-Apr-15 08:00N 35°36' E 140°06'0 0.0
2018-Apr-15 07:30N 35°36' E 140°06'0 0.0
2018-Apr-15 07:00N 35°36' E 140°06'0 0.0
2018-Apr-15 06:30N 35°36' E 140°06'0 0.0
2018-Apr-15 06:00N 35°36' E 140°06'0 0.0
2018-Apr-15 05:30N 35°36' E 140°06'0 0.0
2018-Apr-15 05:00N 35°36' E 140°06'0 0.2
2018-Apr-15 04:30N 35°36' E 140°06'2 4.7
2018-Apr-15 04:00N 35°35' E 140°04'0 0.3
2018-Apr-15 03:30N 35°35' E 140°04'0 0.0
2018-Apr-15 03:00N 35°35' E 140°04'0 0.0
2018-Apr-15 02:27N 35°35' E 140°04'0 0.0
2018-Apr-15 01:57N 35°35' E 140°04'0 0.5
2018-Apr-15 01:29N 35°35' E 140°04'0 0.2
2018-Apr-15 00:59N 35°35' E 140°04'0 0.2
2018-Apr-15 00:29N 35°35' E 140°04'0 0.0
2018-Apr-14 23:59N 35°35' E 140°04'0 0.0
2018-Apr-14 23:29N 35°35' E 140°04'0 1.0
2018-Apr-14 23:00N 35°35' E 140°04'0 0.1
2018-Apr-14 22:30N 35°35' E 140°04'0 0.1
2018-Apr-14 22:00N 35°35' E 140°04'0 0.1
2018-Apr-14 21:30N 35°35' E 140°04'0 0.2
2018-Apr-14 21:00N 35°35' E 140°04'0 0.4
2018-Apr-14 20:30N 35°35' E 140°04'0 0.0
2018-Apr-14 20:00N 35°35' E 140°04'0 0.0
2018-Apr-14 19:30N 35°35' E 140°04'0 0.0
2018-Apr-14 19:00N 35°35' E 140°04'0 0.0
2018-Apr-14 18:30N 35°35' E 140°04'0 0.0
2018-Apr-14 18:00N 35°35' E 140°04'0 0.0
2018-Apr-14 17:30N 35°35' E 140°04'0 0.0
2018-Apr-14 17:00N 35°35' E 140°04'0 0.0
2018-Apr-14 16:30N 35°35' E 140°04'0 0.0
2018-Apr-14 16:00N 35°35' E 140°04'0 0.0
2018-Apr-14 15:30N 35°35' E 140°04'0 0.0
2018-Apr-14 15:00N 35°35' E 140°04'0 0.0
2018-Apr-14 14:30N 35°35' E 140°04'0 0.0
2018-Apr-14 14:00N 35°35' E 140°04'0 0.0
2018-Apr-14 13:30N 35°35' E 140°04'0 0.0
2018-Apr-14 13:00N 35°35' E 140°04'0 0.0
2018-Apr-14 12:30N 35°35' E 140°04'1 1.7
2018-Apr-14 12:00N 35°34' E 140°03'612.7
2018-Apr-14 11:30N 35°32' E 139°56'612.8
2018-Apr-14 11:01N 35°30' E 139°48'2 4.7
2018-Apr-14 10:30N 35°32' E 139°46'0 0.0
2018-Apr-14 10:00N 35°32' E 139°46'0 0.0
2018-Apr-14 09:30N 35°32' E 139°46'0 0.0
2018-Apr-14 09:01N 35°32' E 139°46'0 0.0
2018-Apr-14 08:30N 35°32' E 139°46'0 0.0
2018-Apr-14 08:01N 35°32' E 139°46'0 0.0
2018-Apr-14 07:30N 35°32' E 139°46'0 0.0
2018-Apr-14 07:00N 35°32' E 139°46'0 0.0
2018-Apr-14 06:31N 35°32' E 139°46'0 0.0
2018-Apr-14 06:00N 35°32' E 139°46'0 0.0
2018-Apr-14 05:31N 35°32' E 139°46'0 0.4
2018-Apr-14 05:00N 35°31' E 139°46'3 5.8
2018-Apr-14 04:28N 35°31' E 139°50'5 9.5
2018-Apr-14 03:59N 35°32' E 139°55'611.7
2018-Apr-14 03:30N 35°35' E 140°01'3 6.5
2018-Apr-14 02:59N 35°36' E 140°05'0 0.0
2018-Apr-14 02:28N 35°36' E 140°05'0 0.0
2018-Apr-14 02:00N 35°36' E 140°05'0 0.1
2018-Apr-14 01:28N 35°36' E 140°05'0 0.0
2018-Apr-14 01:00N 35°36' E 140°05'0 0.0
2018-Apr-14 00:30N 35°36' E 140°05'0 0.0
2018-Apr-14 00:01N 35°36' E 140°05'0 0.0
2018-Apr-13 23:30N 35°36' E 140°05'0 0.8
2018-Apr-13 23:00N 35°36' E 140°05'1 2.6
2018-Apr-13 22:30N 35°35' E 140°04'0 0.1
2018-Apr-13 22:00N 35°35' E 140°04'0 0.0
2018-Apr-13 21:30N 35°35' E 140°04'0 0.0
2018-Apr-13 21:00N 35°35' E 140°04'0 0.0
2018-Apr-13 20:29N 35°35' E 140°04'0 0.0
2018-Apr-13 19:59N 35°35' E 140°04'5 4.8
2018-Apr-13 18:59N 35°32' E 139°58'612.6
2018-Apr-13 18:31N 35°29' E 139°53'612.8
2018-Apr-13 18:00N 35°25' E 139°47'612.9
2018-Apr-13 17:31N 35°18' E 139°44'612.8
2018-Apr-13 17:00N 35°12' E 139°47'612.6
2018-Apr-13 16:31N 35°07' E 139°44'612.5
2018-Apr-13 16:00N 35°02' E 139°39'1413.8
2018-Apr-13 14:59N 34°54' E 139°25'714.7
2018-Apr-13 14:30N 34°50' E 139°18'714.2
2018-Apr-13 14:00N 34°45' E 139°11'613.1
2018-Apr-13 13:30N 34°41' E 139°05'713.2
2018-Apr-13 12:59N 34°37' E 138°58'713.5
2018-Apr-13 12:29N 34°35' E 138°51'613.5
2018-Apr-13 12:00N 34°35' E 138°43'612.9
2018-Apr-13 11:30N 34°34' E 138°35'812.6
2018-Apr-13 10:52N 34°34' E 138°25'512.2
2018-Apr-13 10:26N 34°34' E 138°19'512.3
2018-Apr-13 10:00N 34°34' E 138°12'612.1
2018-Apr-13 09:30N 34°34' E 138°05'712.5
2018-Apr-13 08:57N 34°34' E 137°57'3513.1
2018-Apr-13 06:17N 34°33' E 137°14'413.0
2018-Apr-13 06:00N 34°33' E 137°10'612.5
2018-Apr-13 05:30N 34°32' E 137°02'812.4
2018-Apr-13 04:50N 34°38' E 136°54'413.0
2018-Apr-13 04:30N 34°40' E 136°50'713.3
2018-Apr-13 04:00N 34°46' E 136°46'713.5
2018-Apr-13 03:30N 34°53' E 136°46'612.8
2018-Apr-13 03:00N 34°59' E 136°49'1 2.4
2018-Apr-13 02:29N 34°59' E 136°50'0 0.0
2018-Apr-13 02:00N 34°59' E 136°50'0 0.0
2018-Apr-13 01:30N 34°59' E 136°50'0 0.0
2018-Apr-13 01:00N 34°59' E 136°50'0 0.0
2018-Apr-13 00:30N 34°59' E 136°50'0 0.0
2018-Apr-13 00:00N 34°59' E 136°50'1 1.6
2018-Apr-12 23:31N 34°59' E 136°49'0 0.1
2018-Apr-12 23:00N 34°59' E 136°49'0 0.0
2018-Apr-12 22:30N 34°59' E 136°49'0 0.0
2018-Apr-12 22:00N 34°59' E 136°49'0 0.0
2018-Apr-12 21:31N 34°59' E 136°49'0 0.0
2018-Apr-12 21:00N 34°59' E 136°49'0 0.0
2018-Apr-12 20:30N 34°59' E 136°49'0 0.0
2018-Apr-12 19:59N 34°59' E 136°49'0 0.0
2018-Apr-12 19:30N 34°59' E 136°49'0 0.0
2018-Apr-12 19:00N 34°59' E 136°49'0 0.0
2018-Apr-12 18:30N 34°59' E 136°49'0 0.1
2018-Apr-12 18:00N 34°59' E 136°49'0 0.0
2018-Apr-12 17:30N 34°59' E 136°49'0 0.2
2018-Apr-12 17:00N 34°59' E 136°49'4 8.7
2018-Apr-12 16:30N 34°55' E 136°47'611.6
2018-Apr-12 16:00N 34°50' E 136°47'611.9
2018-Apr-12 15:30N 34°44' E 136°50'611.9
2018-Apr-12 15:00N 34°39' E 136°54'612.2
2018-Apr-12 14:30N 34°35' E 136°59'810.9
2018-Apr-12 13:46N 34°34' E 137°09'4811.0
2018-Apr-12 09:26N 34°35' E 138°07'510.6
2018-Apr-12 08:59N 34°35' E 138°12'510.2
2018-Apr-12 08:29N 34°35' E 138°19'510.0
2018-Apr-12 07:59N 34°35' E 138°25'510.1
2018-Apr-12 07:30N 34°35' E 138°31'510.2
2018-Apr-12 06:58N 34°36' E 138°37'510.5
2018-Apr-12 06:31N 34°35' E 138°43'510.1
2018-Apr-12 06:00N 34°35' E 138°49'5 9.6
2018-Apr-12 05:30N 34°36' E 138°55'6 9.7
2018-Apr-12 04:50N 34°40' E 139°01'411.0
2018-Apr-12 04:30N 34°43' E 139°03'611.3
2018-Apr-12 03:56N 34°49' E 139°07'611.9
2018-Apr-12 03:26N 34°54' E 139°11'611.6
2018-Apr-12 02:58N 34°56' E 139°17'510.8
2018-Apr-12 02:30N 34°58' E 139°23'510.7
2018-Apr-12 02:00N 35°01' E 139°28'510.8
2018-Apr-12 01:30N 35°04' E 139°34'611.1
2018-Apr-12 01:00N 35°07' E 139°40'511.1
2018-Apr-12 00:30N 35°10' E 139°45'510.7
2018-Apr-12 00:00N 35°16' E 139°46'611.8
2018-Apr-11 23:30N 35°21' E 139°42'611.6
2018-Apr-11 23:00N 35°26' E 139°45'612.6
2018-Apr-11 22:30N 35°30' E 139°52'4 7.2
2018-Apr-11 22:00N 35°29' E 139°56'0 0.1
2018-Apr-11 21:30N 35°29' E 139°56'0 0.0
2018-Apr-11 21:00N 35°29' E 139°56'0 0.1
2018-Apr-11 20:30N 35°29' E 139°56'0 0.1
2018-Apr-11 20:00N 35°29' E 139°56'0 0.0
2018-Apr-11 19:30N 35°29' E 139°56'0 0.0
2018-Apr-11 19:00N 35°29' E 139°56'  
Track history (hours):
 
Tides and Currents Weather Stations Pressure Air Temp Water Temp Dewpoint Dewpoint Depression Visibility Wind Speed Wind Dir Waves Ship Positions

Umeoh Maru

Last reported at 2018-Apr-21 18:30 UTC. Time now 2018-Apr-21 18:40 UTC.
Position N 35°36' E 139°60'.

Length 73 m; draft 4.6 m.

Type: Tanker. MMSI: 431005826.

Date/timePositionNaut miles runAvg speedWind from/ knotsBaromVisibWave heightAir tempDewpointWater temp
2018-Apr-21 18:30N 35°36' E 139°60'0 0.0
2018-Apr-21 18:00N 35°36' E 139°60'0 0.0
2018-Apr-21 17:30N 35°36' E 139°60'0 0.0
2018-Apr-21 17:00N 35°36' E 139°60'0 0.0
2018-Apr-21 16:30N 35°36' E 139°60'0 0.0
2018-Apr-21 16:00N 35°36' E 139°60'0 0.0
2018-Apr-21 15:30N 35°36' E 139°60'0 0.0
2018-Apr-21 15:00N 35°36' E 139°60'0 0.0
2018-Apr-21 14:30N 35°36' E 139°60'0 0.0
2018-Apr-21 14:00N 35°36' E 139°60'0 0.0
2018-Apr-21 13:30N 35°36' E 139°60'0 0.0
2018-Apr-21 13:01N 35°36' E 139°60'2 3.2
2018-Apr-21 12:30N 35°35' E 139°58'712.8
2018-Apr-21 11:59N 35°32' E 139°51'4 9.2
2018-Apr-21 11:30N 35°32' E 139°46'0 0.1
2018-Apr-21 11:00N 35°32' E 139°46'0 0.0
2018-Apr-21 10:30N 35°32' E 139°46'0 0.0
2018-Apr-21 10:00N 35°32' E 139°46'0 0.0
2018-Apr-21 09:30N 35°32' E 139°46'0 0.0
2018-Apr-21 09:00N 35°32' E 139°46'0 0.0
2018-Apr-21 08:30N 35°32' E 139°46'0 0.0
2018-Apr-21 08:00N 35°32' E 139°46'0 0.0
2018-Apr-21 07:30N 35°32' E 139°46'0 0.0
2018-Apr-21 07:00N 35°32' E 139°46'0 0.0
2018-Apr-21 06:30N 35°32' E 139°46'0 0.1
2018-Apr-21 06:00N 35°32' E 139°46'4 7.1
2018-Apr-21 05:30N 35°31' E 139°50'1 1.5
2018-Apr-21 05:00N 35°31' E 139°51'0 0.0
2018-Apr-21 04:30N 35°31' E 139°51'3 5.2
2018-Apr-21 03:59N 35°32' E 139°54'511.3
2018-Apr-21 03:30N 35°34' E 140°00'4 8.8
2018-Apr-21 03:00N 35°36' E 140°05'0 0.1
2018-Apr-21 02:30N 35°36' E 140°05'0 0.0
2018-Apr-21 02:00N 35°36' E 140°05'0 0.0
2018-Apr-21 01:30N 35°36' E 140°05'0 0.1
2018-Apr-21 01:00N 35°36' E 140°05'0 0.0
2018-Apr-21 00:31N 35°36' E 140°05'0 0.0
2018-Apr-21 00:00N 35°36' E 140°05'0 0.0
2018-Apr-20 23:30N 35°36' E 140°05'0 0.5
2018-Apr-20 23:00N 35°36' E 140°05'1 2.1
2018-Apr-20 22:30N 35°35' E 140°04'0 0.1
2018-Apr-20 22:00N 35°35' E 140°04'0 0.0
2018-Apr-20 21:31N 35°35' E 140°04'0 0.0
2018-Apr-20 21:00N 35°35' E 140°04'0 0.0
2018-Apr-20 20:30N 35°35' E 140°04'0 0.0
2018-Apr-20 20:00N 35°35' E 140°04'0 0.0
2018-Apr-20 19:30N 35°35' E 140°04'0 0.0
2018-Apr-20 19:00N 35°35' E 140°04'611.5
2018-Apr-20 18:30N 35°32' E 139°58'612.9
2018-Apr-20 18:00N 35°28' E 139°52'612.6
2018-Apr-20 17:30N 35°24' E 139°46'612.2
2018-Apr-20 17:00N 35°18' E 139°45'611.9
2018-Apr-20 16:31N 35°12' E 139°47'612.2
2018-Apr-20 16:00N 35°07' E 139°44'612.7
2018-Apr-20 15:30N 35°02' E 139°38'612.8
2018-Apr-20 15:01N 34°58' E 139°33'713.2
2018-Apr-20 14:27N 34°53' E 139°25'613.4
2018-Apr-20 14:00N 34°50' E 139°19'713.8
2018-Apr-20 13:30N 34°46' E 139°12'713.9
2018-Apr-20 13:00N 34°42' E 139°06'713.3
2018-Apr-20 12:29N 34°37' E 138°60'611.5
2018-Apr-20 12:00N 34°35' E 138°53'713.2
2018-Apr-20 11:30N 34°35' E 138°45'713.5
2018-Apr-20 11:00N 34°35' E 138°37'713.2
2018-Apr-20 10:30N 34°35' E 138°29'713.3
2018-Apr-20 10:00N 34°35' E 138°21'612.6
2018-Apr-20 09:30N 34°34' E 138°13'612.6
2018-Apr-20 09:00N 34°35' E 138°06'613.0
2018-Apr-20 08:30N 34°36' E 137°58'712.7
2018-Apr-20 07:58N 34°36' E 137°50'2612.8
2018-Apr-20 05:54N 34°35' E 137°18'513.0
2018-Apr-20 05:30N 34°34' E 137°12'713.3
2018-Apr-20 05:01N 34°33' E 137°04'912.8
2018-Apr-20 04:17N 34°38' E 136°54'413.4
2018-Apr-20 04:00N 34°40' E 136°51'713.1
2018-Apr-20 03:30N 34°46' E 136°47'612.8
2018-Apr-20 03:00N 34°52' E 136°46'612.7
2018-Apr-20 02:30N 34°58' E 136°48'2 4.4
2018-Apr-20 02:00N 34°59' E 136°50'0 0.0
2018-Apr-20 01:30N 34°59' E 136°50'0 0.0
2018-Apr-20 01:00N 34°59' E 136°50'0 0.0
2018-Apr-20 00:30N 34°59' E 136°50'0 0.0
2018-Apr-20 00:00N 34°59' E 136°50'0 0.0
2018-Apr-19 23:30N 34°59' E 136°50'1 1.4
2018-Apr-19 23:01N 34°59' E 136°49'0 0.1
2018-Apr-19 22:30N 34°59' E 136°49'0 0.0
2018-Apr-19 22:00N 34°59' E 136°49'0 0.0
2018-Apr-19 21:30N 34°59' E 136°49'2 3.5
2018-Apr-19 21:00N 34°58' E 136°48'611.7
2018-Apr-19 20:30N 34°52' E 136°47'612.1
2018-Apr-19 20:00N 34°46' E 136°49'612.3
2018-Apr-19 19:30N 34°41' E 136°53'612.3
2018-Apr-19 19:00N 34°36' E 136°58'711.1
2018-Apr-19 18:25N 34°34' E 137°05'5412.4
2018-Apr-19 14:05N 34°35' E 138°10'111.6
2018-Apr-19 13:59N 34°35' E 138°11'611.3
2018-Apr-19 13:27N 34°34' E 138°19'611.8
2018-Apr-19 12:58N 34°35' E 138°25'711.7
2018-Apr-19 12:24N 34°35' E 138°34'511.6
2018-Apr-19 12:00N 34°35' E 138°39'611.7
2018-Apr-19 11:30N 34°35' E 138°46'612.5
2018-Apr-19 11:00N 34°36' E 138°54'812.5
2018-Apr-19 10:24N 34°40' E 139°01'812.7
2018-Apr-19 09:47N 34°47' E 139°06'310.5
2018-Apr-19 09:30N 34°49' E 139°08'611.4
2018-Apr-19 09:00N 34°54' E 139°12'611.6
2018-Apr-19 08:28N 34°57' E 139°19'511.3
2018-Apr-19 08:00N 34°60' E 139°25'511.0
2018-Apr-19 07:30N 35°02' E 139°30'611.6
2018-Apr-19 07:00N 35°05' E 139°37'612.2
2018-Apr-19 06:30N 35°09' E 139°43'611.7
2018-Apr-19 06:00N 35°14' E 139°46'611.2
2018-Apr-19 05:31N 35°19' E 139°43'510.6
2018-Apr-19 05:00N 35°24' E 139°43'611.5
2018-Apr-19 04:30N 35°28' E 139°48'611.8
2018-Apr-19 04:00N 35°31' E 139°54'612.0
2018-Apr-19 03:30N 35°34' E 140°01'4 7.9
2018-Apr-19 03:00N 35°36' E 140°05'0 0.0
2018-Apr-19 02:30N 35°36' E 140°05'0 0.1
2018-Apr-19 02:00N 35°36' E 140°05'0 0.1
2018-Apr-19 01:30N 35°36' E 140°05'0 0.1
2018-Apr-19 01:00N 35°36' E 140°05'0 0.0
2018-Apr-19 00:30N 35°36' E 140°05'0 0.0
2018-Apr-19 00:00N 35°36' E 140°05'0 0.0
2018-Apr-18 23:30N 35°36' E 140°05'0 0.7
2018-Apr-18 23:00N 35°36' E 140°05'2 3.6
2018-Apr-18 22:30N 35°36' E 140°03'611.1
2018-Apr-18 21:59N 35°33' E 139°57'611.8
2018-Apr-18 21:31N 35°31' E 139°50'0 0.1
2018-Apr-18 21:00N 35°31' E 139°50'0 0.1
2018-Apr-18 20:31N 35°31' E 139°50'0 0.0
2018-Apr-18 20:01N 35°31' E 139°50'0 0.0
2018-Apr-18 19:30N 35°31' E 139°50'0 0.0
2018-Apr-18 19:00N 35°31' E 139°50'0 0.1
2018-Apr-18 18:30N 35°31' E 139°50'0 0.1
2018-Apr-18 18:00N 35°31' E 139°50'0 0.0
2018-Apr-18 17:30N 35°31' E 139°50'0 0.0
2018-Apr-18 17:00N 35°31' E 139°50'0 0.0
2018-Apr-18 16:30N 35°31' E 139°50'0 0.0
2018-Apr-18 15:59N 35°31' E 139°50'0 0.0
2018-Apr-18 15:29N 35°31' E 139°50'0 0.0
2018-Apr-18 14:59N 35°31' E 139°50'0 0.0
2018-Apr-18 14:30N 35°31' E 139°50'0 0.0
2018-Apr-18 14:00N 35°31' E 139°50'3 6.0
2018-Apr-18 13:30N 35°30' E 139°47'1 2.6
2018-Apr-18 13:01N 35°32' E 139°46'0 0.0
2018-Apr-18 12:31N 35°32' E 139°46'0 0.0
2018-Apr-18 12:00N 35°32' E 139°46'0 0.0
2018-Apr-18 11:30N 35°32' E 139°46'0 0.0
2018-Apr-18 11:00N 35°32' E 139°46'0 0.0
2018-Apr-18 10:31N 35°32' E 139°46'0 0.0
2018-Apr-18 10:01N 35°32' E 139°46'0 0.0
2018-Apr-18 09:31N 35°32' E 139°46'0 0.0
2018-Apr-18 09:01N 35°32' E 139°46'0 0.0
2018-Apr-18 08:30N 35°32' E 139°46'0 0.1
2018-Apr-18 08:00N 35°32' E 139°46'3 5.8
2018-Apr-18 07:30N 35°31' E 139°49'611.8
2018-Apr-18 07:00N 35°33' E 139°56'611.9
2018-Apr-18 06:30N 35°35' E 140°02'2 3.7
2018-Apr-18 05:56N 35°36' E 140°05'0 0.0
2018-Apr-18 05:26N 35°36' E 140°05'0 0.0
2018-Apr-18 04:56N 35°36' E 140°05'0 0.0
2018-Apr-18 04:26N 35°36' E 140°05'0 0.0
2018-Apr-18 03:56N 35°36' E 140°05'0 0.0
2018-Apr-18 03:26N 35°36' E 140°05'0 0.0
2018-Apr-18 02:56N 35°36' E 140°05'0 0.0
2018-Apr-18 02:29N 35°36' E 140°05'1 1.0
2018-Apr-18 01:55N 35°36' E 140°04'0 0.1
2018-Apr-18 01:25N 35°36' E 140°04'0 0.0
2018-Apr-18 00:55N 35°36' E 140°04'0 0.0
2018-Apr-18 00:25N 35°36' E 140°04'0 0.0
2018-Apr-17 23:55N 35°36' E 140°04'0 0.0
2018-Apr-17 23:28N 35°36' E 140°04'4 7.7
2018-Apr-17 23:00N 35°34' E 140°00'611.9
2018-Apr-17 22:30N 35°31' E 139°54'611.7
2018-Apr-17 22:00N 35°27' E 139°49'611.4
2018-Apr-17 21:30N 35°22' E 139°45'510.3
2018-Apr-17 21:00N 35°17' E 139°46'611.4
2018-Apr-17 20:30N 35°11' E 139°47'611.5
2018-Apr-17 20:00N 35°06' E 139°43'611.7
2018-Apr-17 19:30N 35°02' E 139°37'612.5
2018-Apr-17 19:00N 34°58' E 139°32'712.7
2018-Apr-17 18:29N 34°54' E 139°25'612.1
2018-Apr-17 18:00N 34°50' E 139°20'612.8
2018-Apr-17 17:30N 34°46' E 139°14'612.5
2018-Apr-17 16:59N 34°42' E 139°08'510.8
2018-Apr-17 16:30N 34°39' E 139°03'610.6
2018-Apr-17 15:59N 34°36' E 138°57'610.9
2018-Apr-17 15:24N 34°35' E 138°50'510.9
2018-Apr-17 14:59N 34°36' E 138°44'611.6
2018-Apr-17 14:30N 34°36' E 138°37'611.8
2018-Apr-17 13:59N 34°36' E 138°30'611.6
2018-Apr-17 13:30N 34°35' E 138°23'610.9
2018-Apr-17 12:57N 34°34' E 138°16'510.7
2018-Apr-17 12:28N 34°35' E 138°10'710.7
2018-Apr-17 11:49N 34°35' E 138°01'4 9.8
2018-Apr-17 11:27N 34°35' E 137°57'3110.3
2018-Apr-17 08:27N 34°36' E 137°19'510.2
2018-Apr-17 07:59N 34°35' E 137°14'5 9.8
2018-Apr-17 07:27N 34°34' E 137°08'11 9.0
2018-Apr-17 06:11N 34°37' E 136°54'211.9
2018-Apr-17 06:00N 34°39' E 136°52'612.4
2018-Apr-17 05:30N 34°44' E 136°48'612.8
2018-Apr-17 05:00N 34°49' E 136°45'612.7
2018-Apr-17 04:30N 34°55' E 136°41'3 6.4
2018-Apr-17 04:00N 34°58' E 136°39'0 0.0
2018-Apr-17 03:30N 34°58' E 136°39'0 0.0
2018-Apr-17 02:59N 34°58' E 136°39'0 0.0
2018-Apr-17 02:30N 34°58' E 136°39'0 0.0
2018-Apr-17 02:00N 34°58' E 136°39'0 0.0
2018-Apr-17 01:30N 34°58' E 136°39'0 0.7
2018-Apr-17 00:59N 34°57' E 136°39'4 7.5
2018-Apr-17 00:30N 34°54' E 136°41'1 1.3
2018-Apr-17 00:00N 34°54' E 136°42'0 0.0
2018-Apr-16 23:30N 34°54' E 136°42'0 0.0
2018-Apr-16 23:00N 34°54' E 136°42'0 0.0
2018-Apr-16 22:30N 34°54' E 136°42'0 0.0
2018-Apr-16 22:00N 34°54' E 136°42'1 1.6
2018-Apr-16 21:30N 34°53' E 136°42'611.8
2018-Apr-16 21:00N 34°48' E 136°47'611.9
2018-Apr-16 20:30N 34°43' E 136°51'912.6
2018-Apr-16 19:50N 34°37' E 136°57'513.0
2018-Apr-16 19:26N 34°33' E 137°02'612.7
2018-Apr-16 18:56N 34°34' E 137°09'5412.1
2018-Apr-16 14:29N 34°34' E 138°15'612.1
2018-Apr-16 13:59N 34°34' E 138°22'812.4
2018-Apr-16 13:22N 34°35' E 138°32'612.2
2018-Apr-16 12:53N 34°35' E 138°39'512.4
2018-Apr-16 12:29N 34°35' E 138°45'711.9
2018-Apr-16 11:55N 34°36' E 138°53'510.7
2018-Apr-16 11:26N 34°38' E 138°59'511.6
2018-Apr-16 11:00N 34°42' E 139°03'612.3
2018-Apr-16 10:30N 34°47' E 139°06'712.3
2018-Apr-16 09:56N 34°53' E 139°11'612.1
2018-Apr-16 09:26N 34°56' E 139°17'511.4
2018-Apr-16 09:00N 34°58' E 139°23'611.1
2018-Apr-16 08:30N 35°01' E 139°28'510.8
2018-Apr-16 08:00N 35°04' E 139°34'612.2
2018-Apr-16 07:30N 35°07' E 139°41'612.1
2018-Apr-16 07:00N 35°12' E 139°45'510.5
2018-Apr-16 06:30N 35°17' E 139°45'511.1
2018-Apr-16 06:00N 35°22' E 139°42'510.9
2018-Apr-16 05:30N 35°26' E 139°46'611.0
2018-Apr-16 05:00N 35°30' E 139°51'0 0.1
2018-Apr-16 04:30N 35°30' E 139°51'5 8.9
2018-Apr-16 03:58N 35°33' E 139°56'612.1
2018-Apr-16 03:30N 35°35' E 140°02'2 4.5
2018-Apr-16 02:58N 35°36' E 140°05'0 0.0
2018-Apr-16 02:28N 35°36' E 140°05'0 0.0
2018-Apr-16 01:58N 35°36' E 140°05'0 0.0
2018-Apr-16 01:28N 35°36' E 140°05'0 0.0
2018-Apr-16 00:58N 35°36' E 140°05'0 0.0
2018-Apr-16 00:28N 35°36' E 140°05'0 0.0
2018-Apr-15 23:58N 35°36' E 140°05'0 0.0
2018-Apr-15 23:28N 35°36' E 140°05'0 0.7
2018-Apr-15 23:00N 35°36' E 140°04'2 3.3
2018-Apr-15 22:30N 35°36' E 140°06'0 0.0
2018-Apr-15 22:00N 35°36' E 140°06'0 0.0
2018-Apr-15 21:30N 35°36' E 140°06'0 0.0
2018-Apr-15 21:00N 35°36' E 140°06'0 0.0
2018-Apr-15 20:30N 35°36' E 140°06'0 0.0
2018-Apr-15 20:00N 35°36' E 140°06'0 0.0
2018-Apr-15 19:30N 35°36' E 140°06'0 0.0
2018-Apr-15 19:00N 35°36' E 140°06'0 0.0
2018-Apr-15 18:30N 35°36' E 140°06'0 0.0
2018-Apr-15 18:00N 35°36' E 140°06'0 0.0
2018-Apr-15 17:30N 35°36' E 140°06'0 0.0
2018-Apr-15 17:00N 35°36' E 140°06'0 0.0
2018-Apr-15 16:30N 35°36' E 140°06'0 0.0
2018-Apr-15 16:00N 35°36' E 140°06'0 0.0
2018-Apr-15 15:30N 35°36' E 140°06'0 0.0
2018-Apr-15 15:00N 35°36' E 140°06'0 0.0
2018-Apr-15 14:30N 35°36' E 140°06'0 0.0
2018-Apr-15 14:00N 35°36' E 140°06'0 0.0
2018-Apr-15 13:30N 35°36' E 140°06'0 0.0
2018-Apr-15 13:00N 35°36' E 140°06'0 0.0
2018-Apr-15 12:30N 35°36' E 140°06'0 0.0
2018-Apr-15 12:00N 35°36' E 140°06'0 0.0
2018-Apr-15 11:30N 35°36' E 140°06'0 0.0
2018-Apr-15 11:00N 35°36' E 140°06'0 0.0
2018-Apr-15 10:30N 35°36' E 140°06'0 0.0
2018-Apr-15 10:00N 35°36' E 140°06'0 0.0
2018-Apr-15 09:30N 35°36' E 140°06'0 0.0
2018-Apr-15 09:00N 35°36' E 140°06'0 0.0
2018-Apr-15 08:30N 35°36' E 140°06'0 0.0
2018-Apr-15 08:00N 35°36' E 140°06'0 0.0
2018-Apr-15 07:30N 35°36' E 140°06'0 0.0
2018-Apr-15 07:00N 35°36' E 140°06'0 0.0
2018-Apr-15 06:30N 35°36' E 140°06'0 0.0
2018-Apr-15 06:00N 35°36' E 140°06'0 0.0
2018-Apr-15 05:30N 35°36' E 140°06'0 0.0
2018-Apr-15 05:00N 35°36' E 140°06'0 0.2
2018-Apr-15 04:30N 35°36' E 140°06'2 4.7
2018-Apr-15 04:00N 35°35' E 140°04'0 0.3
2018-Apr-15 03:30N 35°35' E 140°04'0 0.0
2018-Apr-15 03:00N 35°35' E 140°04'0 0.0
2018-Apr-15 02:27N 35°35' E 140°04'0 0.0
2018-Apr-15 01:57N 35°35' E 140°04'0 0.5
2018-Apr-15 01:29N 35°35' E 140°04'0 0.2
2018-Apr-15 00:59N 35°35' E 140°04'0 0.2
2018-Apr-15 00:29N 35°35' E 140°04'0 0.0
2018-Apr-14 23:59N 35°35' E 140°04'0 0.0
2018-Apr-14 23:29N 35°35' E 140°04'0 1.0
2018-Apr-14 23:00N 35°35' E 140°04'0 0.1
2018-Apr-14 22:30N 35°35' E 140°04'0 0.1
2018-Apr-14 22:00N 35°35' E 140°04'0 0.1
2018-Apr-14 21:30N 35°35' E 140°04'0 0.2
2018-Apr-14 21:00N 35°35' E 140°04'0 0.4
2018-Apr-14 20:30N 35°35' E 140°04'0 0.0
2018-Apr-14 20:00N 35°35' E 140°04'0 0.0
2018-Apr-14 19:30N 35°35' E 140°04'0 0.0
2018-Apr-14 19:00N 35°35' E 140°04'0 0.0
2018-Apr-14 18:30N 35°35' E 140°04'0 0.0
2018-Apr-14 18:00N 35°35' E 140°04'0 0.0
2018-Apr-14 17:30N 35°35' E 140°04'0 0.0
2018-Apr-14 17:00N 35°35' E 140°04'0 0.0
2018-Apr-14 16:30N 35°35' E 140°04'0 0.0
2018-Apr-14 16:00N 35°35' E 140°04'0 0.0
2018-Apr-14 15:30N 35°35' E 140°04'0 0.0
2018-Apr-14 15:00N 35°35' E 140°04'0 0.0
2018-Apr-14 14:30N 35°35' E 140°04'0 0.0
2018-Apr-14 14:00N 35°35' E 140°04'0 0.0
2018-Apr-14 13:30N 35°35' E 140°04'0 0.0
2018-Apr-14 13:00N 35°35' E 140°04'0 0.0
2018-Apr-14 12:30N 35°35' E 140°04'1 1.7
2018-Apr-14 12:00N 35°34' E 140°03'612.7
2018-Apr-14 11:30N 35°32' E 139°56'612.8
2018-Apr-14 11:01N 35°30' E 139°48'2 4.7
2018-Apr-14 10:30N 35°32' E 139°46'0 0.0
2018-Apr-14 10:00N 35°32' E 139°46'0 0.0
2018-Apr-14 09:30N 35°32' E 139°46'0 0.0
2018-Apr-14 09:01N 35°32' E 139°46'0 0.0
2018-Apr-14 08:30N 35°32' E 139°46'0 0.0
2018-Apr-14 08:01N 35°32' E 139°46'0 0.0
2018-Apr-14 07:30N 35°32' E 139°46'0 0.0
2018-Apr-14 07:00N 35°32' E 139°46'0 0.0
2018-Apr-14 06:31N 35°32' E 139°46'0 0.0
2018-Apr-14 06:00N 35°32' E 139°46'0 0.0
2018-Apr-14 05:31N 35°32' E 139°46'0 0.4
2018-Apr-14 05:00N 35°31' E 139°46'3 5.8
2018-Apr-14 04:28N 35°31' E 139°50'5 9.5
2018-Apr-14 03:59N 35°32' E 139°55'611.7
2018-Apr-14 03:30N 35°35' E 140°01'3 6.5
2018-Apr-14 02:59N 35°36' E 140°05'0 0.0
2018-Apr-14 02:28N 35°36' E 140°05'0 0.0
2018-Apr-14 02:00N 35°36' E 140°05'0 0.1
2018-Apr-14 01:28N 35°36' E 140°05'0 0.0
2018-Apr-14 01:00N 35°36' E 140°05'0 0.0
2018-Apr-14 00:30N 35°36' E 140°05'0 0.0
2018-Apr-14 00:01N 35°36' E 140°05'0 0.0
2018-Apr-13 23:30N 35°36' E 140°05'0 0.8
2018-Apr-13 23:00N 35°36' E 140°05'1 2.6
2018-Apr-13 22:30N 35°35' E 140°04'0 0.1
2018-Apr-13 22:00N 35°35' E 140°04'0 0.0
2018-Apr-13 21:30N 35°35' E 140°04'0 0.0
2018-Apr-13 21:00N 35°35' E 140°04'0 0.0
2018-Apr-13 20:29N 35°35' E 140°04'0 0.0
2018-Apr-13 19:59N 35°35' E 140°04'5 4.8
2018-Apr-13 18:59N 35°32' E 139°58'612.6
2018-Apr-13 18:31N 35°29' E 139°53'612.8
2018-Apr-13 18:00N 35°25' E 139°47'612.9
2018-Apr-13 17:31N 35°18' E 139°44'612.8
2018-Apr-13 17:00N 35°12' E 139°47'612.6
2018-Apr-13 16:31N 35°07' E 139°44'612.5
2018-Apr-13 16:00N 35°02' E 139°39'1413.8
2018-Apr-13 14:59N 34°54' E 139°25'714.7
2018-Apr-13 14:30N 34°50' E 139°18'714.2
2018-Apr-13 14:00N 34°45' E 139°11'613.1
2018-Apr-13 13:30N 34°41' E 139°05'713.2
2018-Apr-13 12:59N 34°37' E 138°58'713.5
2018-Apr-13 12:29N 34°35' E 138°51'613.5
2018-Apr-13 12:00N 34°35' E 138°43'612.9
2018-Apr-13 11:30N 34°34' E 138°35'812.6
2018-Apr-13 10:52N 34°34' E 138°25'512.2
2018-Apr-13 10:26N 34°34' E 138°19'512.3
2018-Apr-13 10:00N 34°34' E 138°12'612.1
2018-Apr-13 09:30N 34°34' E 138°05'712.5
2018-Apr-13 08:57N 34°34' E 137°57'3513.1
2018-Apr-13 06:17N 34°33' E 137°14'413.0
2018-Apr-13 06:00N 34°33' E 137°10'612.5
2018-Apr-13 05:30N 34°32' E 137°02'812.4
2018-Apr-13 04:50N 34°38' E 136°54'413.0
2018-Apr-13 04:30N 34°40' E 136°50'713.3
2018-Apr-13 04:00N 34°46' E 136°46'713.5
2018-Apr-13 03:30N 34°53' E 136°46'612.8
2018-Apr-13 03:00N 34°59' E 136°49'1 2.4
2018-Apr-13 02:29N 34°59' E 136°50'0 0.0
2018-Apr-13 02:00N 34°59' E 136°50'0 0.0
2018-Apr-13 01:30N 34°59' E 136°50'0 0.0
2018-Apr-13 01:00N 34°59' E 136°50'0 0.0
2018-Apr-13 00:30N 34°59' E 136°50'0 0.0
2018-Apr-13 00:00N 34°59' E 136°50'1 1.6
2018-Apr-12 23:31N 34°59' E 136°49'0 0.1
2018-Apr-12 23:00N 34°59' E 136°49'0 0.0
2018-Apr-12 22:30N 34°59' E 136°49'0 0.0
2018-Apr-12 22:00N 34°59' E 136°49'0 0.0
2018-Apr-12 21:31N 34°59' E 136°49'0 0.0
2018-Apr-12 21:00N 34°59' E 136°49'0 0.0
2018-Apr-12 20:30N 34°59' E 136°49'0 0.0
2018-Apr-12 19:59N 34°59' E 136°49'0 0.0
2018-Apr-12 19:30N 34°59' E 136°49'0 0.0
2018-Apr-12 19:00N 34°59' E 136°49'0 0.0
2018-Apr-12 18:30N 34°59' E 136°49'0 0.1
2018-Apr-12 18:00N 34°59' E 136°49'0 0.0
2018-Apr-12 17:30N 34°59' E 136°49'0 0.2
2018-Apr-12 17:00N 34°59' E 136°49'4 8.7
2018-Apr-12 16:30N 34°55' E 136°47'611.6
2018-Apr-12 16:00N 34°50' E 136°47'611.9
2018-Apr-12 15:30N 34°44' E 136°50'611.9
2018-Apr-12 15:00N 34°39' E 136°54'612.2
2018-Apr-12 14:30N 34°35' E 136°59'810.9
2018-Apr-12 13:46N 34°34' E 137°09'4811.0
2018-Apr-12 09:26N 34°35' E 138°07'510.6
2018-Apr-12 08:59N 34°35' E 138°12'510.2
2018-Apr-12 08:29N 34°35' E 138°19'510.0
2018-Apr-12 07:59N 34°35' E 138°25'510.1
2018-Apr-12 07:30N 34°35' E 138°31'510.2
2018-Apr-12 06:58N 34°36' E 138°37'510.5
2018-Apr-12 06:31N 34°35' E 138°43'510.1
2018-Apr-12 06:00N 34°35' E 138°49'5 9.6
2018-Apr-12 05:30N 34°36' E 138°55'6 9.7
2018-Apr-12 04:50N 34°40' E 139°01'411.0
2018-Apr-12 04:30N 34°43' E 139°03'611.3
2018-Apr-12 03:56N 34°49' E 139°07'611.9
2018-Apr-12 03:26N 34°54' E 139°11'611.6
2018-Apr-12 02:58N 34°56' E 139°17'510.8
2018-Apr-12 02:30N 34°58' E 139°23'510.7
2018-Apr-12 02:00N 35°01' E 139°28'510.8
2018-Apr-12 01:30N 35°04' E 139°34'611.1
2018-Apr-12 01:00N 35°07' E 139°40'511.1
2018-Apr-12 00:30N 35°10' E 139°45'510.7
2018-Apr-12 00:00N 35°16' E 139°46'611.8
2018-Apr-11 23:30N 35°21' E 139°42'611.6
2018-Apr-11 23:00N 35°26' E 139°45'612.6
2018-Apr-11 22:30N 35°30' E 139°52'4 7.2
2018-Apr-11 22:00N 35°29' E 139°56'0 0.1
2018-Apr-11 21:30N 35°29' E 139°56'0 0.0
2018-Apr-11 21:00N 35°29' E 139°56'0 0.1
2018-Apr-11 20:30N 35°29' E 139°56'0 0.1
2018-Apr-11 20:00N 35°29' E 139°56'0 0.0
2018-Apr-11 19:30N 35°29' E 139°56'0 0.0
2018-Apr-11 19:00N 35°29' E 139°56'  

Dump ship's entire track history